Time;durP1;ratioP1;P1;durP2;ratioP2;P2;SDS_P1;SDS_P2;PMS_P1;PMS_P2;Temp;Humidity;BMP_temperature;BMP_pressure;BME280_temperature;BME280_humidity;BME280_pressure;Samples;Min_cycle;Max_cycle;Signal;HPM_P1;HPM_P2
2023/08/17 00:01:29;;;;;;;12.02;5.40;;;;;;;;;;4885063;29;20060;-81
2023/08/17 00:04:01;;;;;;;13.82;6.07;;;;;;;;;;4884935;29;20053;-80
2023/08/17 00:06:32;;;;;;;14.50;5.85;;;;;;;;;;4878616;29;20052;-83
2023/08/17 00:09:04;;;;;;;15.73;5.88;;;;;;;;;;4878265;29;20041;-80
2023/08/17 00:11:36;;;;;;;13.82;6.35;;;;;;;;;;4894290;29;20051;-80
2023/08/17 00:14:07;;;;;;;13.30;6.32;;;;;;;;;;4903565;29;20256;-80
2023/08/17 00:16:41;;;;;;;16.52;6.78;;;;;;;;;;4904519;29;20040;-80
2023/08/17 00:19:17;;;;;;;13.75;6.35;;;;;;;;;;4904654;29;20506;-80
2023/08/17 00:21:49;;;;;;;13.48;6.53;;;;;;;;;;4904448;29;20058;-80
2023/08/17 00:24:21;;;;;;;20.05;6.35;;;;;;;;;;4904623;29;20063;-81
2023/08/17 00:26:53;;;;;;;14.25;6.97;;;;;;;;;;4903903;29;20415;-79
2023/08/17 00:29:25;;;;;;;13.68;6.18;;;;;;;;;;4903347;29;20044;-80
2023/08/17 00:31:58;;;;;;;17.00;6.57;;;;;;;;;;4883895;29;20052;-81
2023/08/17 00:34:33;;;;;;;12.90;5.97;;;;;;;;;;4879634;29;20056;-80
2023/08/17 00:37:05;;;;;;;18.80;6.82;;;;;;;;;;4895151;29;20508;-81
2023/08/17 00:39:36;;;;;;;21.88;7.22;;;;;;;;;;4897722;29;20044;-79
2023/08/17 00:42:08;;;;;;;16.67;6.47;;;;;;;;;;4896626;29;20040;-80
2023/08/17 00:44:39;;;;;;;14.55;6.32;;;;;;;;;;4907694;29;20067;-80
2023/08/17 00:47:11;;;;;;;15.35;6.78;;;;;;;;;;4915704;29;20044;-79
2023/08/17 00:49:42;;;;;;;11.93;6.00;;;;;;;;;;4913885;29;20055;-80
2023/08/17 00:52:12;;;;;;;19.13;6.38;;;;;;;;;;4915515;29;20447;-79
2023/08/17 00:54:43;;;;;;;17.95;6.75;;;;;;;;;;4915549;29;20368;-80
2023/08/17 00:57:14;;;;;;;16.02;6.57;;;;;;;;;;4915744;29;20411;-81
2023/08/17 00:59:46;;;;;;;13.25;6.32;;;;;;;;;;4904437;29;20044;-80
2023/08/17 01:02:33;;;;;;;20.50;6.95;;;;;;;;;;4882597;29;20056;-80
2023/08/17 01:05:06;;;;;;;15.75;6.85;;;;;;;;;;4914376;29;20068;-81
2023/08/17 01:07:37;;;;;;;17.35;6.68;;;;;;;;;;4917808;29;20055;-79
2023/08/17 01:10:10;;;;;;;15.23;6.60;;;;;;;;;;4911987;29;20055;-80
2023/08/17 01:12:49;;;;;;;14.25;6.85;;;;;;;;;;4906518;29;20056;-82
2023/08/17 01:15:35;;;;;;;20.90;7.20;;;;;;;;;;4904603;29;20044;-80
2023/08/17 01:18:10;;;;;;;19.23;7.55;;;;;;;;;;4908045;29;20530;-80
2023/08/17 01:20:41;;;;;;;17.38;7.85;;;;;;;;;;4909341;29;20052;-81
2023/08/17 01:23:12;;;;;;;17.98;8.27;;;;;;;;;;4907894;29;20063;-80
2023/08/17 01:25:44;;;;;;;14.32;7.43;;;;;;;;;;4908170;29;20056;-80
2023/08/17 01:28:18;;;;;;;23.33;7.47;;;;;;;;;;4902543;29;20055;-81
2023/08/17 01:30:58;;;;;;;16.25;7.80;;;;;;;;;;4910028;29;20048;-80
2023/08/17 01:33:43;;;;;;;14.80;8.52;;;;;;;;;;4907022;29;20485;-80
2023/08/17 01:36:25;;;;;;;15.20;7.13;;;;;;;;;;4891601;29;20541;-81
2023/08/17 01:38:57;;;;;;;14.95;7.40;;;;;;;;;;4890731;29;20053;-81
2023/08/17 01:41:30;;;;;;;19.88;7.82;;;;;;;;;;4888114;29;20064;-80
2023/08/17 01:44:02;;;;;;;15.48;7.53;;;;;;;;;;4890828;29;20056;-80
2023/08/17 01:46:33;;;;;;;;;;;;;;;;;;4906663;29;20040;-81
2023/08/17 01:49:03;;;;;;;19.90;7.00;;;;;;;;;;4903658;29;19923;-81
2023/08/17 01:51:34;;;;;;;15.90;7.18;;;;;;;;;;4908895;29;20044;-81
2023/08/17 01:54:07;;;;;;;14.73;7.43;;;;;;;;;;4905178;29;20052;-80
2023/08/17 01:56:40;;;;;;;18.52;7.32;;;;;;;;;;4908919;29;20060;-81
2023/08/17 01:59:11;;;;;;;17.50;7.22;;;;;;;;;;4891694;29;20064;-80
2023/08/17 02:01:43;;;;;;;14.55;7.30;;;;;;;;;;4907096;29;20057;-79
2023/08/17 02:04:16;;;;;;;17.88;7.15;;;;;;;;;;4905084;29;20056;-80
2023/08/17 02:06:48;;;;;;;14.57;8.07;;;;;;;;;;4902529;29;20420;-81
2023/08/17 02:09:22;;;;;;;17.60;8.23;;;;;;;;;;4907121;29;20044;-80
2023/08/17 02:11:55;;;;;;;16.77;8.43;;;;;;;;;;4906023;29;20178;-80
2023/08/17 02:14:25;;;;;;;17.60;8.43;;;;;;;;;;4904769;29;20041;-81
2023/08/17 02:16:56;;;;;;;15.60;8.15;;;;;;;;;;4905037;29;20052;-80
2023/08/17 02:19:29;;;;;;;17.83;8.43;;;;;;;;;;4906534;29;20040;-79
2023/08/17 02:22:03;;;;;;;14.85;7.45;;;;;;;;;;4903301;29;20044;-81
2023/08/17 02:24:34;;;;;;;22.95;8.38;;;;;;;;;;4904996;29;20045;-79
2023/08/17 02:27:06;;;;;;;18.40;8.45;;;;;;;;;;4887121;29;20048;-79
2023/08/17 02:29:40;;;;;;;16.00;7.95;;;;;;;;;;4904109;29;20056;-79
2023/08/17 02:32:15;;;;;;;17.25;8.52;;;;;;;;;;4887098;29;20388;-80
2023/08/17 02:34:48;;;;;;;21.20;9.38;;;;;;;;;;4888437;29;20056;-80
2023/08/17 02:37:23;;;;;;;16.33;8.02;;;;;;;;;;4889630;29;20049;-79
2023/08/17 02:39:55;;;;;;;24.98;8.45;;;;;;;;;;4887753;29;20056;-80
2023/08/17 02:42:27;;;;;;;16.08;8.60;;;;;;;;;;4888784;29;20400;-81
2023/08/17 02:44:58;;;;;;;17.00;8.45;;;;;;;;;;4889669;29;20044;-79
2023/08/17 02:47:28;;;;;;;21.00;8.13;;;;;;;;;;4889361;29;20049;-79
2023/08/17 02:49:59;;;;;;;16.88;8.60;;;;;;;;;;4903750;29;20749;-80
2023/08/17 02:52:31;;;;;;;20.10;8.35;;;;;;;;;;4905314;29;20052;-79
2023/08/17 02:55:02;;;;;;;18.67;7.93;;;;;;;;;;4903971;29;20053;-79
2023/08/17 02:57:35;;;;;;;18.90;8.27;;;;;;;;;;4888575;29;20052;-79
2023/08/17 03:00:07;;;;;;;17.50;8.43;;;;;;;;;;4888255;29;20045;-80
2023/08/17 03:02:39;;;;;;;;;;;;;;;;;;4901516;29;20048;-80
2023/08/17 03:05:09;;;;;;;16.00;8.05;;;;;;;;;;4904585;29;20377;-79
2023/08/17 03:07:41;;;;;;;17.85;7.97;;;;;;;;;;4901751;29;20064;-79
2023/08/17 03:10:13;;;;;;;17.52;8.52;;;;;;;;;;4887250;29;20049;-79
2023/08/17 03:12:47;;;;;;;16.15;8.52;;;;;;;;;;4880334;29;20060;-80
2023/08/17 03:15:18;;;;;;;14.52;8.35;;;;;;;;;;4877613;29;20049;-80
2023/08/17 03:17:49;;;;;;;20.48;8.63;;;;;;;;;;4877891;29;20526;-81
2023/08/17 03:20:20;;;;;;;22.50;8.07;;;;;;;;;;4877779;29;20064;-80
2023/08/17 03:22:54;;;;;;;20.27;8.20;;;;;;;;;;4886951;29;20053;-80
2023/08/17 03:25:24;;;;;;;14.23;7.50;;;;;;;;;;4880446;29;20526;-79
2023/08/17 03:27:57;;;;;;;17.70;8.00;;;;;;;;;;4895154;29;20053;-80
2023/08/17 03:30:30;;;;;;;14.85;8.07;;;;;;;;;;4894534;29;20156;-80
2023/08/17 03:33:02;;;;;;;;;;;;;;;;;;4895338;29;20393;-78
2023/08/17 03:35:33;;;;;;;24.58;8.77;;;;;;;;;;4894233;29;19935;-82
2023/08/17 03:38:08;;;;;;;17.90;7.88;;;;;;;;;;4895041;29;20051;-80
2023/08/17 03:40:39;;;;;;;15.23;7.57;;;;;;;;;;4893819;29;20056;-78
2023/08/17 03:43:10;;;;;;;18.40;8.13;;;;;;;;;;4897313;29;20056;-79
2023/08/17 03:45:44;;;;;;;19.95;8.02;;;;;;;;;;4896827;29;20063;-80
2023/08/17 03:48:15;;;;;;;15.20;8.20;;;;;;;;;;4896805;29;20058;-80
2023/08/17 03:50:52;;;;;;;21.52;8.60;;;;;;;;;;4881051;29;20052;-80
2023/08/17 03:53:26;;;;;;;14.80;8.05;;;;;;;;;;4897949;29;20045;-80
2023/08/17 03:55:56;;;;;;;18.00;8.02;;;;;;;;;;4898158;29;20048;-79
2023/08/17 03:58:32;;;;;;;18.80;8.63;;;;;;;;;;4898176;29;20052;-80
2023/08/17 04:01:05;;;;;;;16.55;7.90;;;;;;;;;;4897018;29;20539;-81
2023/08/17 04:03:37;;;;;;;17.48;8.27;;;;;;;;;;4898307;29;20076;-80
2023/08/17 04:06:12;;;;;;;15.73;7.25;;;;;;;;;;4900587;29;20119;-80
2023/08/17 04:08:46;;;;;;;17.55;7.53;;;;;;;;;;4900086;29;20507;-81
2023/08/17 04:11:42;;;;;;;20.42;7.60;;;;;;;;;;4909141;29;20040;-77
2023/08/17 04:14:16;;;;;;;19.63;7.63;;;;;;;;;;4919413;29;20057;-79
2023/08/17 04:16:52;;;;;;;15.63;7.95;;;;;;;;;;4920486;29;20033;-78
2023/08/17 04:19:24;;;;;;;22.30;8.50;;;;;;;;;;4916889;29;20044;-79
2023/08/17 04:21:59;;;;;;;16.77;7.82;;;;;;;;;;4897349;29;20056;-81
2023/08/17 04:24:35;;;;;;;15.80;7.57;;;;;;;;;;4896417;29;20056;-80
2023/08/17 04:27:08;;;;;;;15.35;7.53;;;;;;;;;;4896548;29;20048;-81
2023/08/17 04:29:40;;;;;;;13.95;7.75;;;;;;;;;;4897025;29;20063;-82
2023/08/17 04:32:35;;;;;;;14.60;6.80;;;;;;;;;;4897091;29;20053;-80
2023/08/17 04:35:09;;;;;;;20.10;7.60;;;;;;;;;;4901710;29;20063;-79
2023/08/17 04:37:42;;;;;;;17.52;7.70;;;;;;;;;;4900152;29;20052;-80
2023/08/17 04:40:15;;;;;;;16.65;8.13;;;;;;;;;;4900777;29;20045;-81
2023/08/17 04:42:49;;;;;;;13.57;7.05;;;;;;;;;;4901117;29;20056;-80
2023/08/17 04:45:23;;;;;;;17.63;6.82;;;;;;;;;;4899647;29;20056;-80
2023/08/17 04:47:54;;;;;;;17.85;8.10;;;;;;;;;;4899855;29;20052;-80
2023/08/17 04:50:24;;;;;;;13.35;6.75;;;;;;;;;;4900559;29;20064;-80
2023/08/17 04:52:55;;;;;;;18.65;7.47;;;;;;;;;;4899760;29;20052;-81
2023/08/17 04:55:29;;;;;;;18.50;6.72;;;;;;;;;;4885623;29;20063;-82
2023/08/17 04:57:59;;;;;;;13.13;7.70;;;;;;;;;;4884053;29;20404;-82
2023/08/17 05:00:31;;;;;;;15.30;7.50;;;;;;;;;;4899080;29;20403;-82
2023/08/17 05:03:03;;;;;;;12.93;6.95;;;;;;;;;;4901123;29;20060;-81
2023/08/17 05:05:43;;;;;;;17.58;6.97;;;;;;;;;;4900199;29;20063;-81
2023/08/17 05:08:13;;;;;;;13.50;7.10;;;;;;;;;;4899766;29;20059;-81
2023/08/17 05:10:43;;;;;;;13.20;6.82;;;;;;;;;;4884812;29;20060;-80
2023/08/17 05:13:20;;;;;;;13.50;6.90;;;;;;;;;;4900730;29;20053;-80
2023/08/17 05:15:59;;;;;;;14.10;6.90;;;;;;;;;;4899925;29;20052;-80
2023/08/17 05:18:31;;;;;;;16.92;6.80;;;;;;;;;;4899502;29;20049;-82
2023/08/17 05:21:03;;;;;;;14.57;6.55;;;;;;;;;;4898969;29;20049;-80
2023/08/17 05:23:34;;;;;;;15.23;6.70;;;;;;;;;;4899035;29;20053;-80
2023/08/17 05:26:06;;;;;;;12.57;6.75;;;;;;;;;;4898784;29;20052;-80
2023/08/17 05:28:39;;;;;;;15.70;6.15;;;;;;;;;;4899224;29;20056;-82
2023/08/17 05:31:11;;;;;;;14.48;6.65;;;;;;;;;;4899195;29;20373;-81
2023/08/17 05:33:47;;;;;;;16.17;6.57;;;;;;;;;;4899318;29;20076;-78
2023/08/17 05:36:18;;;;;;;13.32;6.30;;;;;;;;;;4899345;29;20059;-79
2023/08/17 05:38:48;;;;;;;11.23;6.10;;;;;;;;;;4900661;29;20052;-79
2023/08/17 05:41:20;;;;;;;13.88;6.20;;;;;;;;;;4898748;29;20134;-81
2023/08/17 05:43:51;;;;;;;14.77;6.18;;;;;;;;;;4900563;29;20045;-80
2023/08/17 05:46:22;;;;;;;16.85;6.57;;;;;;;;;;4900146;29;20053;-80
2023/08/17 05:48:52;;;;;;;13.18;6.38;;;;;;;;;;4900403;29;20049;-80
2023/08/17 05:51:24;;;;;;;12.65;6.10;;;;;;;;;;4899758;29;20472;-82
2023/08/17 05:53:55;;;;;;;15.75;6.55;;;;;;;;;;4898738;29;20053;-80
2023/08/17 05:56:29;;;;;;;10.27;5.78;;;;;;;;;;4899978;29;20045;-80
2023/08/17 05:59:00;;;;;;;16.95;6.50;;;;;;;;;;4900070;29;20056;-82
2023/08/17 06:01:31;;;;;;;13.65;6.82;;;;;;;;;;4899915;29;20048;-81
2023/08/17 06:04:05;;;;;;;11.60;6.50;;;;;;;;;;4900174;29;20052;-81
2023/08/17 06:06:38;;;;;;;14.25;6.38;;;;;;;;;;4899908;29;20049;-81
2023/08/17 06:09:08;;;;;;;11.85;6.38;;;;;;;;;;4899993;29;20484;-81
2023/08/17 06:11:39;;;;;;;11.75;6.45;;;;;;;;;;4900714;29;20396;-80
2023/08/17 06:14:13;;;;;;;14.35;6.40;;;;;;;;;;4900142;29;20404;-82
2023/08/17 06:16:47;;;;;;;16.58;6.43;;;;;;;;;;4899695;29;20048;-80
2023/08/17 06:19:17;;;;;;;15.73;6.45;;;;;;;;;;4899719;29;20056;-81
2023/08/17 06:21:48;;;;;;;13.05;6.05;;;;;;;;;;4899968;29;20060;-81
2023/08/17 06:24:20;;;;;;;15.48;5.50;;;;;;;;;;4898675;29;20052;-80
2023/08/17 06:26:55;;;;;;;13.80;6.97;;;;;;;;;;4898638;29;20408;-83
2023/08/17 06:29:26;;;;;;;11.13;5.85;;;;;;;;;;4899614;29;20063;-82
2023/08/17 06:31:56;;;;;;;12.38;5.43;;;;;;;;;;4899546;29;20048;-80
2023/08/17 06:34:34;;;;;;;13.35;5.97;;;;;;;;;;4899000;29;20408;-82
2023/08/17 06:37:06;;;;;;;12.02;6.03;;;;;;;;;;4900179;29;20051;-80
2023/08/17 06:39:36;;;;;;;13.88;6.05;;;;;;;;;;4899339;29;20052;-83
2023/08/17 06:42:07;;;;;;;11.75;6.20;;;;;;;;;;4898481;29;20055;-82
2023/08/17 06:44:38;;;;;;;13.57;5.22;;;;;;;;;;4899571;29;20480;-81
2023/08/17 06:47:12;;;;;;;15.05;6.95;;;;;;;;;;4899279;29;20408;-81
2023/08/17 06:49:44;;;;;;;12.85;6.45;;;;;;;;;;4899024;29;20060;-79
2023/08/17 06:52:14;;;;;;;12.93;6.13;;;;;;;;;;4897697;29;20055;-81
2023/08/17 06:54:47;;;;;;;10.60;5.78;;;;;;;;;;4899340;29;20064;-82
2023/08/17 06:57:18;;;;;;;11.75;6.18;;;;;;;;;;4898886;29;20483;-81
2023/08/17 06:59:49;;;;;;;12.65;5.88;;;;;;;;;;4899318;29;20051;-79
2023/08/17 07:02:20;;;;;;;13.93;5.43;;;;;;;;;;4898789;29;20052;-80
2023/08/17 07:04:58;;;;;;;9.73;4.93;;;;;;;;;;4899159;29;20049;-80
2023/08/17 07:07:31;;;;;;;12.88;5.43;;;;;;;;;;4897944;29;20056;-80
2023/08/17 07:10:02;;;;;;;10.48;5.05;;;;;;;;;;4899457;29;20488;-81
2023/08/17 07:12:38;;;;;;;9.88;4.93;;;;;;;;;;4899359;29;20055;-80
2023/08/17 07:15:13;;;;;;;13.90;5.88;;;;;;;;;;4897528;29;20053;-80
2023/08/17 07:17:44;;;;;;;10.98;5.32;;;;;;;;;;4899026;29;20483;-80
2023/08/17 07:20:15;;;;;;;10.35;5.25;;;;;;;;;;4899184;29;20388;-80
2023/08/17 07:22:46;;;;;;;12.68;5.45;;;;;;;;;;4897720;29;20053;-80
2023/08/17 07:25:17;;;;;;;8.60;5.05;;;;;;;;;;4897251;29;20167;-81
2023/08/17 07:27:51;;;;;;;13.45;5.30;;;;;;;;;;4899224;29;20460;-81
2023/08/17 07:30:21;;;;;;;10.23;5.22;;;;;;;;;;4898630;29;20064;-82
2023/08/17 07:32:53;;;;;;;11.57;4.72;;;;;;;;;;4898134;29;20101;-80
2023/08/17 07:35:25;;;;;;;11.07;4.72;;;;;;;;;;4896790;29;20056;-82
2023/08/17 07:37:56;;;;;;;;;;;;;;;;;;4898230;29;20370;-79
2023/08/17 07:40:37;;;;;;;10.07;5.00;;;;;;;;;;4898024;29;19927;-83
2023/08/17 07:43:07;;;;;;;10.80;4.70;;;;;;;;;;4898849;29;20048;-80
2023/08/17 07:45:38;;;;;;;12.25;5.55;;;;;;;;;;4898803;29;20349;-81
2023/08/17 07:48:09;;;;;;;9.48;4.63;;;;;;;;;;4898077;29;20041;-80
2023/08/17 07:50:39;;;;;;;12.85;5.00;;;;;;;;;;4896909;29;20492;-81
2023/08/17 07:53:09;;;;;;;10.45;5.28;;;;;;;;;;4898010;29;20052;-80
2023/08/17 07:55:41;;;;;;;11.85;4.85;;;;;;;;;;4896341;29;20065;-81
2023/08/17 07:58:12;;;;;;;12.80;6.07;;;;;;;;;;4882325;29;20361;-81
2023/08/17 08:00:43;;;;;;;12.93;5.60;;;;;;;;;;4898070;29;20052;-83
2023/08/17 08:03:14;;;;;;;13.63;5.75;;;;;;;;;;4897942;29;20401;-81
2023/08/17 08:05:45;;;;;;;11.05;5.72;;;;;;;;;;4898021;29;20122;-80
2023/08/17 08:08:17;;;;;;;13.45;5.68;;;;;;;;;;4898011;29;20365;-80
2023/08/17 08:10:47;;;;;;;11.05;5.13;;;;;;;;;;4896888;29;20111;-80
2023/08/17 08:13:20;;;;;;;13.90;5.93;;;;;;;;;;4896543;29;20053;-80
2023/08/17 08:15:52;;;;;;;11.25;5.60;;;;;;;;;;4896907;29;20049;-80
2023/08/17 08:18:24;;;;;;;10.27;5.28;;;;;;;;;;4898544;29;20396;-82
2023/08/17 08:20:56;;;;;;;14.73;5.43;;;;;;;;;;4898034;29;20047;-82
2023/08/17 08:23:26;;;;;;;14.90;5.07;;;;;;;;;;4898108;29;20040;-79
2023/08/17 08:26:00;;;;;;;10.63;5.22;;;;;;;;;;4896572;29;20052;-82
2023/08/17 08:28:32;;;;;;;10.15;5.43;;;;;;;;;;4896300;29;20056;-80
2023/08/17 08:31:05;;;;;;;11.30;5.30;;;;;;;;;;4897982;29;20044;-79
2023/08/17 08:33:37;;;;;;;13.40;6.45;;;;;;;;;;4898244;29;20400;-81
2023/08/17 08:36:15;;;;;;;11.57;5.60;;;;;;;;;;4897548;29;20057;-81
2023/08/17 08:38:48;;;;;;;10.98;5.00;;;;;;;;;;4897700;29;20053;-81
2023/08/17 08:41:26;;;;;;;13.35;5.47;;;;;;;;;;4898317;29;20477;-79
2023/08/17 08:43:58;;;;;;;11.73;4.88;;;;;;;;;;4897665;29;20051;-77
2023/08/17 08:46:33;;;;;;;9.35;5.10;;;;;;;;;;4897749;29;20053;-77
2023/08/17 08:49:12;;;;;;;13.80;5.35;;;;;;;;;;4898360;29;20044;-79
2023/08/17 08:51:46;;;;;;;14.95;5.45;;;;;;;;;;4896244;29;20055;-79
2023/08/17 08:54:23;;;;;;;12.50;5.30;;;;;;;;;;4897968;29;20049;-82
2023/08/17 08:57:00;;;;;;;10.90;5.03;;;;;;;;;;4897025;29;20044;-80
2023/08/17 08:59:43;;;;;;;13.35;6.40;;;;;;;;;;4898195;29;20044;-80
2023/08/17 09:02:16;;;;;;;12.75;6.10;;;;;;;;;;4896749;29;20057;-82
2023/08/17 09:04:49;;;;;;;11.43;5.57;;;;;;;;;;4897407;29;20052;-82
2023/08/17 09:07:23;;;;;;;16.65;6.15;;;;;;;;;;4895927;29;20376;-81
2023/08/17 09:09:58;;;;;;;11.15;6.60;;;;;;;;;;4896331;29;20056;-82
2023/08/17 09:12:29;;;;;;;16.88;6.28;;;;;;;;;;4897282;29;20496;-81
2023/08/17 09:15:12;;;;;;;14.07;5.32;;;;;;;;;;4897853;29;20052;-79
2023/08/17 09:17:48;;;;;;;11.15;5.75;;;;;;;;;;4898008;29;20072;-79
2023/08/17 09:20:41;;;;;;;15.50;5.82;;;;;;;;;;4899192;29;20056;-82
2023/08/17 09:23:19;;;;;;;12.25;5.28;;;;;;;;;;4901369;29;20049;-80
2023/08/17 09:25:59;;;;;;;11.13;5.85;;;;;;;;;;4901041;29;20053;-80
2023/08/17 09:28:40;;;;;;;11.52;5.10;;;;;;;;;;4901550;29;20048;-80
2023/08/17 09:31:14;;;;;;;9.15;4.85;;;;;;;;;;4899525;29;20059;-80
2023/08/17 09:33:50;;;;;;;13.73;5.07;;;;;;;;;;4900850;29;20045;-81
2023/08/17 09:36:22;;;;;;;12.13;5.85;;;;;;;;;;4908101;29;20059;-80
2023/08/17 09:38:57;;;;;;;19.52;6.32;;;;;;;;;;4910511;29;20099;-78
2023/08/17 09:41:28;;;;;;;10.57;5.68;;;;;;;;;;4907128;29;20048;-79
2023/08/17 09:44:01;;;;;;;13.48;6.40;;;;;;;;;;4918139;29;20062;-77
2023/08/17 09:46:31;;;;;;;10.07;5.57;;;;;;;;;;4913639;29;20048;-77
2023/08/17 09:49:08;;;;;;;10.95;5.53;;;;;;;;;;4921005;29;20061;-77
2023/08/17 09:51:38;;;;;;;13.93;5.70;;;;;;;;;;4896508;29;20064;-80
2023/08/17 09:54:26;;;;;;;11.75;6.40;;;;;;;;;;4895108;29;20515;-80
2023/08/17 09:56:59;;;;;;;13.73;5.82;;;;;;;;;;4871542;29;20068;-83
2023/08/17 09:59:32;;;;;;;13.70;5.78;;;;;;;;;;4888232;29;20064;-80
2023/08/17 10:02:25;;;;;;;14.15;5.97;;;;;;;;;;4897133;29;20064;-80
2023/08/17 10:04:58;;;;;;;10.73;5.40;;;;;;;;;;4898565;29;20056;-79
2023/08/17 10:07:34;;;;;;;10.52;4.97;;;;;;;;;;4900981;29;20140;-80
2023/08/17 10:10:06;;;;;;;11.45;6.00;;;;;;;;;;4900067;29;20052;-80
2023/08/17 10:12:50;;;;;;;15.57;5.65;;;;;;;;;;4900151;29;20496;-79
2023/08/17 10:15:25;;;;;;;12.30;6.80;;;;;;;;;;4899979;29;20048;-79
2023/08/17 10:18:09;;;;;;;12.93;5.93;;;;;;;;;;4898479;29;20048;-79
2023/08/17 10:21:01;;;;;;;20.65;6.97;;;;;;;;;;4900463;29;20055;-80
2023/08/17 10:23:37;;;;;;;12.77;6.28;;;;;;;;;;4900230;29;20048;-79
2023/08/17 10:26:11;;;;;;;9.82;5.43;;;;;;;;;;4900299;29;20044;-80
2023/08/17 10:28:42;;;;;;;16.23;7.47;;;;;;;;;;4900027;29;20059;-79
2023/08/17 10:31:15;;;;;;;13.77;6.60;;;;;;;;;;4901464;29;20065;-80
2023/08/17 10:33:48;;;;;;;22.25;8.18;;;;;;;;;;4896746;29;20052;-82
2023/08/17 10:36:21;;;;;;;16.95;7.53;;;;;;;;;;4896880;29;20056;-80
2023/08/17 10:39:20;;;;;;;15.35;7.45;;;;;;;;;;4884898;29;20052;-80
2023/08/17 10:41:56;;;;;;;19.13;7.13;;;;;;;;;;4879840;29;20056;-79
2023/08/17 10:44:49;;;;;;;14.65;7.05;;;;;;;;;;4875102;29;20419;-80
2023/08/17 10:47:46;;;;;;;12.35;6.53;;;;;;;;;;4891222;29;20500;-79
2023/08/17 10:50:22;;;;;;;;;;;;;;;;;;4887622;29;20060;-78
2023/08/17 10:52:56;;;;;;;16.20;7.60;;;;;;;;;;4889686;29;19924;-79
2023/08/17 10:55:42;;;;;;;19.75;7.93;;;;;;;;;;4889252;29;20044;-80
2023/08/17 10:58:15;;;;;;;14.02;7.40;;;;;;;;;;4891148;29;20048;-83
2023/08/17 11:00:45;;;;;;;17.27;7.45;;;;;;;;;;4889126;29;20044;-81
2023/08/17 11:03:22;;;;;;;13.50;7.15;;;;;;;;;;4904570;29;20051;-82
2023/08/17 11:06:00;;;;;;;17.38;7.35;;;;;;;;;;4902856;29;20048;-82
2023/08/17 11:08:56;;;;;;;15.52;6.85;;;;;;;;;;4896619;29;20056;-81
2023/08/17 11:11:31;;;;;;;21.08;7.70;;;;;;;;;;4894539;29;20041;-85
2023/08/17 11:14:04;;;;;;;15.98;7.18;;;;;;;;;;4884672;29;20053;-83
2023/08/17 11:16:38;;;;;;;16.73;7.22;;;;;;;;;;4879772;29;20480;-83
2023/08/17 11:19:08;;;;;;;17.02;6.90;;;;;;;;;;4878118;29;20072;-83
2023/08/17 11:21:43;;;;;;;17.02;6.78;;;;;;;;;;4878082;29;20369;-86
2023/08/17 11:24:13;;;;;;;14.20;7.30;;;;;;;;;;4876612;29;20060;-82
2023/08/17 11:26:53;;;;;;;19.42;6.90;;;;;;;;;;4878348;29;20048;-82
2023/08/17 11:29:24;;;;;;;10.98;6.55;;;;;;;;;;4879061;29;20057;-82
2023/08/17 11:31:54;;;;;;;17.65;7.75;;;;;;;;;;4888988;29;20423;-81
2023/08/17 11:34:28;;;;;;;17.15;7.88;;;;;;;;;;4890511;29;20527;-85
2023/08/17 11:37:01;;;;;;;24.42;9.32;;;;;;;;;;4904171;29;20068;-82
2023/08/17 11:39:34;;;;;;;20.75;8.38;;;;;;;;;;4912529;29;20400;-81
2023/08/17 11:42:07;;;;;;;19.02;8.57;;;;;;;;;;4871612;29;20056;-81
2023/08/17 11:44:41;;;;;;;16.10;7.68;;;;;;;;;;4887303;29;20413;-81
2023/08/17 11:47:13;;;;;;;12.35;7.00;;;;;;;;;;4888257;29;20044;-82
2023/08/17 11:49:43;;;;;;;;;;;;;;;;;;4890054;29;20055;-84
2023/08/17 11:52:13;;;;;;;15.73;7.75;;;;;;;;;;4887116;29;20016;-81
2023/08/17 11:54:45;;;;;;;17.80;7.13;;;;;;;;;;4889550;29;20049;-81
2023/08/17 11:57:22;;;;;;;13.13;7.55;;;;;;;;;;4888330;29;20056;-80
2023/08/17 11:59:56;;;;;;;17.20;8.23;;;;;;;;;;4877763;29;20057;-81
2023/08/17 12:02:28;;;;;;;17.10;7.57;;;;;;;;;;4898454;29;20175;-81
2023/08/17 12:05:07;;;;;;;19.98;8.13;;;;;;;;;;4898543;29;20059;-85
2023/08/17 12:07:40;;;;;;;12.15;6.82;;;;;;;;;;4897211;29;20079;-84
2023/08/17 12:10:10;;;;;;;15.10;6.88;;;;;;;;;;4892894;29;20045;-81
2023/08/17 12:12:44;;;;;;;10.95;6.47;;;;;;;;;;4884202;29;20073;-80
2023/08/17 12:15:18;;;;;;;15.10;7.47;;;;;;;;;;4901462;29;20045;-85
2023/08/17 12:17:48;;;;;;;;;;;;;;;;;;4896758;29;20500;-81
2023/08/17 12:20:21;;;;;;;14.70;5.93;;;;;;;;;;4894448;29;19927;-84
2023/08/17 12:22:52;;;;;;;12.48;6.40;;;;;;;;;;4895956;29;20075;-81
2023/08/17 12:25:25;;;;;;;11.77;5.25;;;;;;;;;;4891451;29;20404;-82
2023/08/17 12:28:01;;;;;;;9.77;5.15;;;;;;;;;;4881103;29;20187;-81
2023/08/17 12:30:35;;;;;;;10.50;4.43;;;;;;;;;;4897525;29;20052;-79
2023/08/17 12:33:08;;;;;;;10.30;3.92;;;;;;;;;;4885362;29;20053;-80
2023/08/17 12:35:39;;;;;;;8.80;4.47;;;;;;;;;;4877242;29;20413;-84
2023/08/17 12:38:12;;;;;;;11.05;5.10;;;;;;;;;;4878634;29;20056;-80
2023/08/17 12:40:46;;;;;;;11.50;4.45;;;;;;;;;;4880855;29;20257;-80
2023/08/17 12:43:27;;;;;;;14.93;4.60;;;;;;;;;;4885623;29;20057;-83
2023/08/17 12:46:00;;;;;;;10.23;4.75;;;;;;;;;;4897017;29;20503;-79
2023/08/17 12:48:34;;;;;;;9.70;4.40;;;;;;;;;;4897920;29;20052;-80
2023/08/17 12:51:04;;;;;;;12.07;5.88;;;;;;;;;;4896671;29;20463;-79
2023/08/17 12:53:50;;;;;;;9.80;4.55;;;;;;;;;;4897357;29;20573;-80
2023/08/17 12:56:25;;;;;;;9.85;4.40;;;;;;;;;;4901933;29;20053;-79
2023/08/17 12:58:56;;;;;;;13.43;4.70;;;;;;;;;;4902119;29;20060;-81
2023/08/17 13:01:31;;;;;;;11.23;4.85;;;;;;;;;;4902167;29;20055;-79
2023/08/17 14:48:07;;;;;;;7.45;2.28;;;;;;;;;;5193149;23;20051;-80
2023/08/17 14:50:45;;;;;;;5.85;2.15;;;;;;;;;;4958566;29;20047;-79
2023/08/17 14:53:41;;;;;;;6.90;2.70;;;;;;;;;;4938434;29;20048;-81
2023/08/17 14:56:34;;;;;;;8.55;2.35;;;;;;;;;;4885309;29;20053;-80
2023/08/17 15:08:16;;;;;;;8.80;2.70;;;;;;;;;;4790353;29;20039;-82
2023/08/17 15:10:53;;;;;;;7.35;2.80;;;;;;;;;;4790969;29;20061;-84
2023/08/17 15:14:15;;;;;;;9.70;2.20;;;;;;;;;;4806006;29;20054;-82
2023/08/17 15:29:43;;;;;;;6.32;2.45;;;;;;;;;;4805784;29;20058;-83
2023/08/17 15:32:32;;;;;;;8.02;2.47;;;;;;;;;;4823230;29;20423;-85
2023/08/17 15:35:03;;;;;;;6.53;2.13;;;;;;;;;;4860681;29;20061;-82
2023/08/17 15:37:34;;;;;;;6.65;2.50;;;;;;;;;;4943203;29;20055;-82
2023/08/17 15:40:06;;;;;;;10.80;2.58;;;;;;;;;;4939841;29;20066;-81
2023/08/17 15:43:02;;;;;;;6.10;2.17;;;;;;;;;;4957212;29;20043;-82
2023/08/17 15:45:32;;;;;;;5.43;2.15;;;;;;;;;;4940163;29;20058;-84
2023/08/17 15:48:02;;;;;;;7.55;2.20;;;;;;;;;;4923326;29;20482;-81
2023/08/17 15:50:34;;;;;;;5.30;2.05;;;;;;;;;;4940618;29;20043;-83
2023/08/17 15:53:08;;;;;;;8.15;2.45;;;;;;;;;;4955406;29;20051;-83
2023/08/17 15:56:31;;;;;;;7.57;2.10;;;;;;;;;;4957337;29;20047;-81
2023/08/17 15:59:30;;;;;;;9.88;2.22;;;;;;;;;;4953908;29;20047;-82
2023/08/17 16:02:01;;;;;;;8.38;1.85;;;;;;;;;;4927707;29;20035;-82
2023/08/17 16:04:36;;;;;;;4.63;2.30;;;;;;;;;;4941138;29;20043;-83
2023/08/17 16:07:08;;;;;;;6.05;2.10;;;;;;;;;;4945218;29;20044;-83
2023/08/17 16:18:23;;;;;;;8.05;2.53;;;;;;;;;;4950998;29;20036;-81
2023/08/17 16:32:31;;;;;;;6.88;1.92;;;;;;;;;;5033675;23;20040;-80
2023/08/17 16:35:55;;;;;;;9.73;2.53;;;;;;;;;;4946302;29;20047;-81
2023/08/17 16:42:04;;;;;;;9.13;2.30;;;;;;;;;;5617478;23;20055;-83
2023/08/17 16:44:35;;;;;;;10.82;2.90;;;;;;;;;;4959788;29;20043;-81
2023/08/17 16:47:06;;;;;;;10.00;2.22;;;;;;;;;;4960541;29;20047;-81
2023/08/17 16:49:41;;;;;;;6.90;2.50;;;;;;;;;;4961074;29;20051;-80
2023/08/17 16:52:12;;;;;;;6.13;2.40;;;;;;;;;;4960742;29;20506;-81
2023/08/17 16:54:45;;;;;;;6.80;2.35;;;;;;;;;;4944173;29;20054;-85
2023/08/17 17:02:46;;;;;;;9.18;3.03;;;;;;;;;;4946093;29;20035;-81
2023/08/17 17:05:22;;;;;;;9.52;2.97;;;;;;;;;;4923921;29;20055;-81
2023/08/17 17:15:58;;;;;;;8.00;2.70;;;;;;;;;;4941716;29;20047;-83
2023/08/17 17:18:34;;;;;;;4.65;2.58;;;;;;;;;;4925552;29;20048;-84
2023/08/17 17:21:58;;;;;;;3.95;2.72;;;;;;;;;;4941591;29;20058;-86
2023/08/17 17:25:12;;;;;;;5.95;2.42;;;;;;;;;;4923563;29;20059;-85
2023/08/17 17:27:51;;;;;;;9.63;2.97;;;;;;;;;;4940004;29;20059;-85
2023/08/17 17:31:23;;;;;;;7.20;3.03;;;;;;;;;;4906996;29;20523;-85
2023/08/17 17:33:54;;;;;;;9.40;3.47;;;;;;;;;;4922662;29;20047;-86
2023/08/17 17:36:51;;;;;;;9.23;3.70;;;;;;;;;;4939036;29;20051;-83
2023/08/17 17:39:49;;;;;;;6.70;2.92;;;;;;;;;;4908249;29;20059;-85
2023/08/17 17:51:26;;;;;;;7.93;3.20;;;;;;;;;;4962131;29;20054;-84
2023/08/17 17:53:58;;;;;;;10.60;3.88;;;;;;;;;;4947775;29;20047;-85
2023/08/17 18:04:39;;;;;;;8.77;3.90;;;;;;;;;;4957686;28;20453;-85
2023/08/17 18:07:11;;;;;;;8.25;3.53;;;;;;;;;;4924759;29;20113;-82
2023/08/17 18:09:41;;;;;;;8.52;3.85;;;;;;;;;;4931889;29;20512;-85
2023/08/17 18:19:50;;;;;;;8.63;3.03;;;;;;;;;;5450839;23;20482;-82
2023/08/17 18:22:51;;;;;;;6.95;3.22;;;;;;;;;;4944272;29;20039;-83
2023/08/17 18:26:16;;;;;;;8.13;3.10;;;;;;;;;;4926346;29;20051;-82
2023/08/17 18:29:17;;;;;;;7.32;2.83;;;;;;;;;;4925604;29;20062;-86